sensor_id;sensor_type;location;lat;lon;timestamp;temperature;humidity
37232;DHT22;23125;48.156;15.954;2023-04-03T00:01:33;8.80;58.60
37232;DHT22;23125;48.156;15.954;2023-04-03T00:03:59;8.80;58.40
37232;DHT22;23125;48.156;15.954;2023-04-03T00:06:25;8.80;58.40
37232;DHT22;23125;48.156;15.954;2023-04-03T00:08:52;8.80;58.50
37232;DHT22;23125;48.156;15.954;2023-04-03T00:11:18;8.80;58.30
37232;DHT22;23125;48.156;15.954;2023-04-03T00:13:44;8.70;58.30
37232;DHT22;23125;48.156;15.954;2023-04-03T00:16:11;8.70;58.40
37232;DHT22;23125;48.156;15.954;2023-04-03T00:18:38;8.70;58.40
37232;DHT22;23125;48.156;15.954;2023-04-03T00:21:05;8.70;58.40
37232;DHT22;23125;48.156;15.954;2023-04-03T00:23:31;8.70;58.60
37232;DHT22;23125;48.156;15.954;2023-04-03T00:25:57;8.70;58.50
37232;DHT22;23125;48.156;15.954;2023-04-03T00:28:23;8.70;58.60
37232;DHT22;23125;48.156;15.954;2023-04-03T00:30:50;8.70;58.50
37232;DHT22;23125;48.156;15.954;2023-04-03T00:33:16;8.70;58.50
37232;DHT22;23125;48.156;15.954;2023-04-03T00:35:43;8.70;58.40
37232;DHT22;23125;48.156;15.954;2023-04-03T00:38:09;8.70;58.40
37232;DHT22;23125;48.156;15.954;2023-04-03T00:40:38;8.70;58.40
37232;DHT22;23125;48.156;15.954;2023-04-03T00:43:24;8.70;58.40
37232;DHT22;23125;48.156;15.954;2023-04-03T00:45:54;8.70;58.40
37232;DHT22;23125;48.156;15.954;2023-04-03T00:48:32;8.60;58.30
37232;DHT22;23125;48.156;15.954;2023-04-03T00:51:00;8.60;58.50
37232;DHT22;23125;48.156;15.954;2023-04-03T00:53:53;8.70;58.60
37232;DHT22;23125;48.156;15.954;2023-04-03T00:56:20;8.70;58.60
37232;DHT22;23125;48.156;15.954;2023-04-03T00:58:59;8.60;58.40
37232;DHT22;23125;48.156;15.954;2023-04-03T01:01:28;8.60;58.40
37232;DHT22;23125;48.156;15.954;2023-04-03T01:03:54;8.70;58.60
37232;DHT22;23125;48.156;15.954;2023-04-03T01:06:26;8.70;58.60
37232;DHT22;23125;48.156;15.954;2023-04-03T01:08:53;8.70;58.60
37232;DHT22;23125;48.156;15.954;2023-04-03T01:11:21;8.70;58.60
37232;DHT22;23125;48.156;15.954;2023-04-03T01:13:47;8.70;58.50
37232;DHT22;23125;48.156;15.954;2023-04-03T01:16:13;8.70;58.50
37232;DHT22;23125;48.156;15.954;2023-04-03T01:18:40;8.70;58.60
37232;DHT22;23125;48.156;15.954;2023-04-03T01:23:58;8.70;58.50
37232;DHT22;23125;48.156;15.954;2023-04-03T01:26:25;8.70;58.40
37232;DHT22;23125;48.156;15.954;2023-04-03T01:28:54;8.70;58.50
37232;DHT22;23125;48.156;15.954;2023-04-03T01:33:52;8.70;58.50
37232;DHT22;23125;48.156;15.954;2023-04-03T01:36:27;8.70;58.50
37232;DHT22;23125;48.156;15.954;2023-04-03T01:38:55;8.70;58.50
37232;DHT22;23125;48.156;15.954;2023-04-03T01:41:21;8.70;58.50
37232;DHT22;23125;48.156;15.954;2023-04-03T01:43:49;8.70;58.50
37232;DHT22;23125;48.156;15.954;2023-04-03T01:46:16;8.70;58.60
37232;DHT22;23125;48.156;15.954;2023-04-03T01:48:42;8.70;58.40
37232;DHT22;23125;48.156;15.954;2023-04-03T01:51:08;8.70;58.60
37232;DHT22;23125;48.156;15.954;2023-04-03T01:53:34;8.70;58.60
37232;DHT22;23125;48.156;15.954;2023-04-03T01:56:00;8.70;58.50
37232;DHT22;23125;48.156;15.954;2023-04-03T01:58:26;8.70;58.40
37232;DHT22;23125;48.156;15.954;2023-04-03T02:00:52;8.70;58.40
37232;DHT22;23125;48.156;15.954;2023-04-03T02:03:18;8.70;58.40
37232;DHT22;23125;48.156;15.954;2023-04-03T02:05:45;8.70;58.30
37232;DHT22;23125;48.156;15.954;2023-04-03T02:08:10;8.70;58.20
37232;DHT22;23125;48.156;15.954;2023-04-03T02:10:36;8.60;58.20
37232;DHT22;23125;48.156;15.954;2023-04-03T02:13:02;8.60;58.40
37232;DHT22;23125;48.156;15.954;2023-04-03T02:15:28;8.60;58.40
37232;DHT22;23125;48.156;15.954;2023-04-03T02:17:54;8.60;58.40
37232;DHT22;23125;48.156;15.954;2023-04-03T02:20:20;8.60;58.40
37232;DHT22;23125;48.156;15.954;2023-04-03T02:22:47;8.60;58.40
37232;DHT22;23125;48.156;15.954;2023-04-03T02:25:13;8.60;58.50
37232;DHT22;23125;48.156;15.954;2023-04-03T02:27:40;8.60;58.50
37232;DHT22;23125;48.156;15.954;2023-04-03T02:30:06;8.60;58.50
37232;DHT22;23125;48.156;15.954;2023-04-03T02:32:32;8.60;58.40
37232;DHT22;23125;48.156;15.954;2023-04-03T02:34:58;8.60;58.30
37232;DHT22;23125;48.156;15.954;2023-04-03T02:37:24;8.60;58.40
37232;DHT22;23125;48.156;15.954;2023-04-03T02:39:51;8.60;58.50
37232;DHT22;23125;48.156;15.954;2023-04-03T02:42:17;8.60;58.40
37232;DHT22;23125;48.156;15.954;2023-04-03T02:44:43;8.60;58.50
37232;DHT22;23125;48.156;15.954;2023-04-03T02:47:08;8.60;58.50
37232;DHT22;23125;48.156;15.954;2023-04-03T02:49:34;8.60;58.60
37232;DHT22;23125;48.156;15.954;2023-04-03T02:52:00;8.60;58.60
37232;DHT22;23125;48.156;15.954;2023-04-03T02:54:26;8.60;58.50
37232;DHT22;23125;48.156;15.954;2023-04-03T02:56:54;8.60;58.50
37232;DHT22;23125;48.156;15.954;2023-04-03T02:59:20;8.60;58.50
37232;DHT22;23125;48.156;15.954;2023-04-03T03:01:46;8.60;58.50
37232;DHT22;23125;48.156;15.954;2023-04-03T03:04:12;8.60;58.50
37232;DHT22;23125;48.156;15.954;2023-04-03T03:06:37;8.60;58.50
37232;DHT22;23125;48.156;15.954;2023-04-03T03:09:04;8.60;58.50
37232;DHT22;23125;48.156;15.954;2023-04-03T03:11:30;8.60;58.50
37232;DHT22;23125;48.156;15.954;2023-04-03T03:13:57;8.60;58.50
37232;DHT22;23125;48.156;15.954;2023-04-03T03:16:23;8.50;58.40
37232;DHT22;23125;48.156;15.954;2023-04-03T03:18:49;8.60;58.50
37232;DHT22;23125;48.156;15.954;2023-04-03T03:21:15;8.60;58.60
37232;DHT22;23125;48.156;15.954;2023-04-03T03:23:41;8.60;58.60
37232;DHT22;23125;48.156;15.954;2023-04-03T03:26:09;8.60;58.50
37232;DHT22;23125;48.156;15.954;2023-04-03T03:28:36;8.60;58.50
37232;DHT22;23125;48.156;15.954;2023-04-03T03:31:02;8.60;58.50
37232;DHT22;23125;48.156;15.954;2023-04-03T03:33:29;8.50;58.40
37232;DHT22;23125;48.156;15.954;2023-04-03T03:35:55;8.60;58.50
37232;DHT22;23125;48.156;15.954;2023-04-03T03:38:22;8.60;58.60
37232;DHT22;23125;48.156;15.954;2023-04-03T03:40:49;8.60;58.60
37232;DHT22;23125;48.156;15.954;2023-04-03T03:43:16;8.60;58.60
37232;DHT22;23125;48.156;15.954;2023-04-03T03:45:42;8.60;58.60
37232;DHT22;23125;48.156;15.954;2023-04-03T03:48:08;8.60;58.60
37232;DHT22;23125;48.156;15.954;2023-04-03T03:50:35;8.60;58.60
37232;DHT22;23125;48.156;15.954;2023-04-03T03:53:01;8.50;58.40
37232;DHT22;23125;48.156;15.954;2023-04-03T03:55:27;8.60;58.50
37232;DHT22;23125;48.156;15.954;2023-04-03T03:57:53;8.60;58.60
37232;DHT22;23125;48.156;15.954;2023-04-03T04:00:19;8.60;58.60
37232;DHT22;23125;48.156;15.954;2023-04-03T04:02:45;8.60;58.50
37232;DHT22;23125;48.156;15.954;2023-04-03T04:05:12;8.60;58.50
37232;DHT22;23125;48.156;15.954;2023-04-03T04:07:38;8.60;58.50
37232;DHT22;23125;48.156;15.954;2023-04-03T04:10:04;8.60;58.50
37232;DHT22;23125;48.156;15.954;2023-04-03T04:12:30;8.60;58.40
37232;DHT22;23125;48.156;15.954;2023-04-03T04:14:56;8.60;58.50
37232;DHT22;23125;48.156;15.954;2023-04-03T04:17:22;8.60;58.60
37232;DHT22;23125;48.156;15.954;2023-04-03T04:19:48;8.50;58.50
37232;DHT22;23125;48.156;15.954;2023-04-03T04:22:14;8.60;58.50
37232;DHT22;23125;48.156;15.954;2023-04-03T04:24:39;8.60;58.50
37232;DHT22;23125;48.156;15.954;2023-04-03T04:27:05;8.60;58.40
37232;DHT22;23125;48.156;15.954;2023-04-03T04:29:31;8.60;58.40
37232;DHT22;23125;48.156;15.954;2023-04-03T04:32:02;8.60;58.40
37232;DHT22;23125;48.156;15.954;2023-04-03T04:34:28;8.50;58.30
37232;DHT22;23125;48.156;15.954;2023-04-03T04:36:55;8.50;58.30
37232;DHT22;23125;48.156;15.954;2023-04-03T04:39:21;8.60;58.50
37232;DHT22;23125;48.156;15.954;2023-04-03T04:41:47;8.50;58.40
37232;DHT22;23125;48.156;15.954;2023-04-03T04:44:12;8.50;58.30
37232;DHT22;23125;48.156;15.954;2023-04-03T04:46:38;8.50;58.30
37232;DHT22;23125;48.156;15.954;2023-04-03T04:49:04;8.50;58.40
37232;DHT22;23125;48.156;15.954;2023-04-03T04:51:30;8.50;58.40
37232;DHT22;23125;48.156;15.954;2023-04-03T04:53:56;8.50;58.40
37232;DHT22;23125;48.156;15.954;2023-04-03T04:56:21;8.50;58.30
37232;DHT22;23125;48.156;15.954;2023-04-03T04:58:47;8.50;58.20
37232;DHT22;23125;48.156;15.954;2023-04-03T05:01:13;8.50;58.20
37232;DHT22;23125;48.156;15.954;2023-04-03T05:03:39;8.50;58.30
37232;DHT22;23125;48.156;15.954;2023-04-03T05:06:06;8.50;58.30
37232;DHT22;23125;48.156;15.954;2023-04-03T05:08:32;8.50;58.30
37232;DHT22;23125;48.156;15.954;2023-04-03T05:10:58;8.50;58.10
37232;DHT22;23125;48.156;15.954;2023-04-03T05:13:24;8.50;58.10
37232;DHT22;23125;48.156;15.954;2023-04-03T05:15:49;8.40;58.10
37232;DHT22;23125;48.156;15.954;2023-04-03T05:18:15;8.40;58.20
37232;DHT22;23125;48.156;15.954;2023-04-03T05:20:41;8.40;58.20
37232;DHT22;23125;48.156;15.954;2023-04-03T05:23:09;8.40;58.00
37232;DHT22;23125;48.156;15.954;2023-04-03T05:25:38;8.40;58.10
37232;DHT22;23125;48.156;15.954;2023-04-03T05:28:04;8.40;58.10
37232;DHT22;23125;48.156;15.954;2023-04-03T05:30:29;8.40;58.20
37232;DHT22;23125;48.156;15.954;2023-04-03T05:32:55;8.30;58.00
37232;DHT22;23125;48.156;15.954;2023-04-03T05:35:21;8.30;58.00
37232;DHT22;23125;48.156;15.954;2023-04-03T05:37:48;8.30;58.10
37232;DHT22;23125;48.156;15.954;2023-04-03T05:40:13;8.30;58.20
37232;DHT22;23125;48.156;15.954;2023-04-03T05:42:39;8.30;58.30
37232;DHT22;23125;48.156;15.954;2023-04-03T05:45:06;8.40;58.30
37232;DHT22;23125;48.156;15.954;2023-04-03T05:47:32;8.40;58.20
37232;DHT22;23125;48.156;15.954;2023-04-03T05:49:58;8.40;58.20
37232;DHT22;23125;48.156;15.954;2023-04-03T05:52:28;8.30;58.20
37232;DHT22;23125;48.156;15.954;2023-04-03T05:54:55;8.40;58.10
37232;DHT22;23125;48.156;15.954;2023-04-03T05:57:21;8.40;58.10
37232;DHT22;23125;48.156;15.954;2023-04-03T05:59:48;8.40;58.00
37232;DHT22;23125;48.156;15.954;2023-04-03T06:02:17;8.30;58.00
37232;DHT22;23125;48.156;15.954;2023-04-03T06:04:43;8.40;58.10
37232;DHT22;23125;48.156;15.954;2023-04-03T06:07:14;8.40;58.00
37232;DHT22;23125;48.156;15.954;2023-04-03T06:09:42;8.40;58.00
37232;DHT22;23125;48.156;15.954;2023-04-03T06:12:08;8.40;58.10
37232;DHT22;23125;48.156;15.954;2023-04-03T06:14:34;8.40;57.90
37232;DHT22;23125;48.156;15.954;2023-04-03T06:17:01;8.40;58.00
37232;DHT22;23125;48.156;15.954;2023-04-03T06:19:27;8.40;58.00
37232;DHT22;23125;48.156;15.954;2023-04-03T06:21:53;8.40;57.90
37232;DHT22;23125;48.156;15.954;2023-04-03T06:24:20;8.40;58.00
37232;DHT22;23125;48.156;15.954;2023-04-03T06:26:47;8.40;58.00
37232;DHT22;23125;48.156;15.954;2023-04-03T06:29:14;8.40;57.90
37232;DHT22;23125;48.156;15.954;2023-04-03T06:31:40;8.40;58.00
37232;DHT22;23125;48.156;15.954;2023-04-03T06:34:06;8.40;57.90
37232;DHT22;23125;48.156;15.954;2023-04-03T06:36:33;8.40;57.80
37232;DHT22;23125;48.156;15.954;2023-04-03T06:38:59;8.40;57.90
37232;DHT22;23125;48.156;15.954;2023-04-03T06:41:25;8.40;58.10
37232;DHT22;23125;48.156;15.954;2023-04-03T06:43:52;8.50;58.10
37232;DHT22;23125;48.156;15.954;2023-04-03T06:46:20;8.50;58.10
37232;DHT22;23125;48.156;15.954;2023-04-03T06:48:47;8.50;57.90
37232;DHT22;23125;48.156;15.954;2023-04-03T06:51:22;8.50;57.90
37232;DHT22;23125;48.156;15.954;2023-04-03T06:53:51;8.50;57.90
37232;DHT22;23125;48.156;15.954;2023-04-03T06:56:19;8.50;57.90
37232;DHT22;23125;48.156;15.954;2023-04-03T06:58:45;8.50;57.90
37232;DHT22;23125;48.156;15.954;2023-04-03T07:01:13;8.50;57.80
37232;DHT22;23125;48.156;15.954;2023-04-03T07:03:40;8.50;57.80
37232;DHT22;23125;48.156;15.954;2023-04-03T07:06:08;8.50;57.70
37232;DHT22;23125;48.156;15.954;2023-04-03T07:08:35;8.50;57.60
37232;DHT22;23125;48.156;15.954;2023-04-03T07:11:01;8.50;57.50
37232;DHT22;23125;48.156;15.954;2023-04-03T07:13:26;8.50;57.50
37232;DHT22;23125;48.156;15.954;2023-04-03T07:15:53;8.50;57.50
37232;DHT22;23125;48.156;15.954;2023-04-03T07:18:19;8.50;57.50
37232;DHT22;23125;48.156;15.954;2023-04-03T07:20:45;8.50;57.60
37232;DHT22;23125;48.156;15.954;2023-04-03T07:23:11;8.50;57.70
37232;DHT22;23125;48.156;15.954;2023-04-03T07:25:45;8.50;57.80
37232;DHT22;23125;48.156;15.954;2023-04-03T07:28:11;8.60;57.70
37232;DHT22;23125;48.156;15.954;2023-04-03T07:30:44;8.60;57.90
37232;DHT22;23125;48.156;15.954;2023-04-03T07:33:11;8.70;58.10
37232;DHT22;23125;48.156;15.954;2023-04-03T07:35:39;8.70;58.10
37232;DHT22;23125;48.156;15.954;2023-04-03T07:38:05;8.80;58.00
37232;DHT22;23125;48.156;15.954;2023-04-03T07:40:32;8.80;57.40
37232;DHT22;23125;48.156;15.954;2023-04-03T07:42:58;8.80;57.50
37232;DHT22;23125;48.156;15.954;2023-04-03T07:45:25;8.80;57.50
37232;DHT22;23125;48.156;15.954;2023-04-03T07:47:51;8.80;57.60
37232;DHT22;23125;48.156;15.954;2023-04-03T07:50:18;8.90;57.80
37232;DHT22;23125;48.156;15.954;2023-04-03T07:52:44;8.90;57.90
37232;DHT22;23125;48.156;15.954;2023-04-03T07:55:12;9.00;57.90
37232;DHT22;23125;48.156;15.954;2023-04-03T07:57:37;9.10;58.00
37232;DHT22;23125;48.156;15.954;2023-04-03T08:00:04;9.10;57.90
37232;DHT22;23125;48.156;15.954;2023-04-03T08:02:31;9.20;58.10
37232;DHT22;23125;48.156;15.954;2023-04-03T08:05:00;9.40;58.40
37232;DHT22;23125;48.156;15.954;2023-04-03T08:07:26;9.50;58.40
37232;DHT22;23125;48.156;15.954;2023-04-03T08:09:52;9.60;58.30
37232;DHT22;23125;48.156;15.954;2023-04-03T08:12:18;9.70;58.00
37232;DHT22;23125;48.156;15.954;2023-04-03T08:14:45;9.80;58.10
37232;DHT22;23125;48.156;15.954;2023-04-03T08:17:11;10.00;58.40
37232;DHT22;23125;48.156;15.954;2023-04-03T08:19:40;10.10;58.00
37232;DHT22;23125;48.156;15.954;2023-04-03T08:22:06;10.10;57.20
37232;DHT22;23125;48.156;15.954;2023-04-03T08:24:33;10.20;57.20
37232;DHT22;23125;48.156;15.954;2023-04-03T08:27:00;10.30;57.50
37232;DHT22;23125;48.156;15.954;2023-04-03T08:29:26;10.40;57.40
37232;DHT22;23125;48.156;15.954;2023-04-03T08:31:52;10.50;57.10
37232;DHT22;23125;48.156;15.954;2023-04-03T08:34:20;10.60;56.80
37232;DHT22;23125;48.156;15.954;2023-04-03T08:36:46;10.60;56.90
37232;DHT22;23125;48.156;15.954;2023-04-03T08:39:13;10.70;56.70
37232;DHT22;23125;48.156;15.954;2023-04-03T08:41:43;10.80;56.50
37232;DHT22;23125;48.156;15.954;2023-04-03T08:44:46;10.80;55.60
37232;DHT22;23125;48.156;15.954;2023-04-03T08:50:03;10.70;55.20
37232;DHT22;23125;48.156;15.954;2023-04-03T08:52:41;10.70;55.40
37232;DHT22;23125;48.156;15.954;2023-04-03T08:55:27;10.70;55.30
37232;DHT22;23125;48.156;15.954;2023-04-03T08:58:26;10.70;55.20
37232;DHT22;23125;48.156;15.954;2023-04-03T09:01:10;10.60;54.70
37232;DHT22;23125;48.156;15.954;2023-04-03T09:03:41;10.50;54.20
37232;DHT22;23125;48.156;15.954;2023-04-03T09:06:15;10.40;53.90
37232;DHT22;23125;48.156;15.954;2023-04-03T09:08:58;10.30;54.60
37232;DHT22;23125;48.156;15.954;2023-04-03T09:16:49;11.00;57.70
37232;DHT22;23125;48.156;15.954;2023-04-03T09:21:57;11.70;58.00
37232;DHT22;23125;48.156;15.954;2023-04-03T09:24:24;12.30;58.10
37232;DHT22;23125;48.156;15.954;2023-04-03T09:27:04;12.50;56.20
37232;DHT22;23125;48.156;15.954;2023-04-03T09:29:35;12.50;54.40
37232;DHT22;23125;48.156;15.954;2023-04-03T09:32:02;12.60;53.70
37232;DHT22;23125;48.156;15.954;2023-04-03T09:34:40;12.50;52.60
37232;DHT22;23125;48.156;15.954;2023-04-03T09:37:07;12.40;52.20
37232;DHT22;23125;48.156;15.954;2023-04-03T09:39:53;12.30;52.10
37232;DHT22;23125;48.156;15.954;2023-04-03T09:42:25;12.50;53.90
37232;DHT22;23125;48.156;15.954;2023-04-03T09:45:05;12.60;53.60
37232;DHT22;23125;48.156;15.954;2023-04-03T09:47:34;12.70;53.00
37232;DHT22;23125;48.156;15.954;2023-04-03T09:52:40;12.60;51.40
37232;DHT22;23125;48.156;15.954;2023-04-03T09:55:08;12.60;50.90
37232;DHT22;23125;48.156;15.954;2023-04-03T09:57:39;12.40;50.00
37232;DHT22;23125;48.156;15.954;2023-04-03T10:00:05;12.20;49.80
37232;DHT22;23125;48.156;15.954;2023-04-03T10:02:37;11.90;49.20
37232;DHT22;23125;48.156;15.954;2023-04-03T10:05:34;11.70;49.50
37232;DHT22;23125;48.156;15.954;2023-04-03T10:10:46;11.50;50.10
37232;DHT22;23125;48.156;15.954;2023-04-03T10:13:18;11.40;50.30
37232;DHT22;23125;48.156;15.954;2023-04-03T10:16:03;11.40;50.50
37232;DHT22;23125;48.156;15.954;2023-04-03T10:18:49;11.40;50.40
37232;DHT22;23125;48.156;15.954;2023-04-03T10:24:10;11.40;50.10
37232;DHT22;23125;48.156;15.954;2023-04-03T10:27:10;11.40;49.80
37232;DHT22;23125;48.156;15.954;2023-04-03T10:29:40;11.30;49.40
37232;DHT22;23125;48.156;15.954;2023-04-03T10:34:47;11.50;51.10
37232;DHT22;23125;48.156;15.954;2023-04-03T10:37:24;11.60;50.40
37232;DHT22;23125;48.156;15.954;2023-04-03T10:39:57;11.70;50.40
37232;DHT22;23125;48.156;15.954;2023-04-03T10:50:26;11.70;48.60
37232;DHT22;23125;48.156;15.954;2023-04-03T10:53:03;11.70;48.70
37232;DHT22;23125;48.156;15.954;2023-04-03T10:55:59;11.70;47.60
37232;DHT22;23125;48.156;15.954;2023-04-03T10:58:38;11.60;47.70
37232;DHT22;23125;48.156;15.954;2023-04-03T11:01:10;11.60;47.40
37232;DHT22;23125;48.156;15.954;2023-04-03T11:03:58;11.60;46.90
37232;DHT22;23125;48.156;15.954;2023-04-03T11:06:32;11.60;47.70
37232;DHT22;23125;48.156;15.954;2023-04-03T11:09:03;11.50;47.00
37232;DHT22;23125;48.156;15.954;2023-04-03T11:11:34;11.50;47.00
37232;DHT22;23125;48.156;15.954;2023-04-03T11:14:05;11.40;45.60
37232;DHT22;23125;48.156;15.954;2023-04-03T11:16:41;11.30;46.00
37232;DHT22;23125;48.156;15.954;2023-04-03T11:19:11;11.30;46.20
37232;DHT22;23125;48.156;15.954;2023-04-03T11:24:32;11.20;45.90
37232;DHT22;23125;48.156;15.954;2023-04-03T11:27:00;11.10;45.70
37232;DHT22;23125;48.156;15.954;2023-04-03T11:29:32;11.10;46.00
37232;DHT22;23125;48.156;15.954;2023-04-03T11:35:07;11.20;46.00
37232;DHT22;23125;48.156;15.954;2023-04-03T11:37:45;11.20;45.80
37232;DHT22;23125;48.156;15.954;2023-04-03T11:47:53;11.50;46.30
37232;DHT22;23125;48.156;15.954;2023-04-03T11:50:44;11.60;46.30
37232;DHT22;23125;48.156;15.954;2023-04-03T11:55:52;11.80;44.90
37232;DHT22;23125;48.156;15.954;2023-04-03T11:58:21;11.70;44.60
37232;DHT22;23125;48.156;15.954;2023-04-03T12:00:52;11.80;44.70
37232;DHT22;23125;48.156;15.954;2023-04-03T12:06:42;11.60;43.80
37232;DHT22;23125;48.156;15.954;2023-04-03T12:08:48;11.50;42.80
37232;DHT22;23125;48.156;15.954;2023-04-03T12:11:31;11.40;43.10
37232;DHT22;23125;48.156;15.954;2023-04-03T12:24:27;11.40;44.00
37232;DHT22;23125;48.156;15.954;2023-04-03T12:46:03;11.60;43.10
37232;DHT22;23125;48.156;15.954;2023-04-03T12:48:53;11.60;42.30
37232;DHT22;23125;48.156;15.954;2023-04-03T12:51:29;11.50;42.20
37232;DHT22;23125;48.156;15.954;2023-04-03T12:54:04;11.40;41.90
37232;DHT22;23125;48.156;15.954;2023-04-03T12:56:38;11.40;41.70
37232;DHT22;23125;48.156;15.954;2023-04-03T12:59:15;11.40;42.10
37232;DHT22;23125;48.156;15.954;2023-04-03T13:01:42;11.50;42.00
37232;DHT22;23125;48.156;15.954;2023-04-03T13:04:11;11.40;41.80
37232;DHT22;23125;48.156;15.954;2023-04-03T13:06:43;11.40;41.70
37232;DHT22;23125;48.156;15.954;2023-04-03T13:09:24;11.40;41.40
37232;DHT22;23125;48.156;15.954;2023-04-03T13:12:03;11.40;41.20
37232;DHT22;23125;48.156;15.954;2023-04-03T13:14:30;11.40;41.20
37232;DHT22;23125;48.156;15.954;2023-04-03T13:17:10;11.30;41.10
37232;DHT22;23125;48.156;15.954;2023-04-03T13:19:38;11.20;40.90
37232;DHT22;23125;48.156;15.954;2023-04-03T13:22:30;11.20;41.00
37232;DHT22;23125;48.156;15.954;2023-04-03T13:24:54;11.20;41.00
37232;DHT22;23125;48.156;15.954;2023-04-03T13:27:21;11.10;40.80
37232;DHT22;23125;48.156;15.954;2023-04-03T13:29:52;11.10;40.50
37232;DHT22;23125;48.156;15.954;2023-04-03T13:32:23;11.00;40.30
37232;DHT22;23125;48.156;15.954;2023-04-03T13:34:50;10.90;40.50
37232;DHT22;23125;48.156;15.954;2023-04-03T13:37:29;10.90;40.60
37232;DHT22;23125;48.156;15.954;2023-04-03T13:42:36;10.90;40.90
37232;DHT22;23125;48.156;15.954;2023-04-03T13:45:24;10.90;40.90
37232;DHT22;23125;48.156;15.954;2023-04-03T13:48:08;10.90;40.90
37232;DHT22;23125;48.156;15.954;2023-04-03T13:51:00;10.80;40.50
37232;DHT22;23125;48.156;15.954;2023-04-03T13:53:29;10.80;40.80
37232;DHT22;23125;48.156;15.954;2023-04-03T13:56:09;10.80;40.60
37232;DHT22;23125;48.156;15.954;2023-04-03T14:01:54;10.80;40.60
37232;DHT22;23125;48.156;15.954;2023-04-03T14:04:26;10.80;40.60
37232;DHT22;23125;48.156;15.954;2023-04-03T14:06:54;10.80;40.80
37232;DHT22;23125;48.156;15.954;2023-04-03T14:09:22;10.80;40.50
37232;DHT22;23125;48.156;15.954;2023-04-03T14:11:50;10.80;40.30
37232;DHT22;23125;48.156;15.954;2023-04-03T14:14:24;10.80;40.30
37232;DHT22;23125;48.156;15.954;2023-04-03T14:16:54;10.80;40.40
37232;DHT22;23125;48.156;15.954;2023-04-03T14:19:25;10.80;40.40
37232;DHT22;23125;48.156;15.954;2023-04-03T14:21:53;10.80;40.20
37232;DHT22;23125;48.156;15.954;2023-04-03T14:24:20;10.80;40.00
37232;DHT22;23125;48.156;15.954;2023-04-03T14:26:48;10.70;39.70
37232;DHT22;23125;48.156;15.954;2023-04-03T14:29:15;10.70;39.70
37232;DHT22;23125;48.156;15.954;2023-04-03T14:31:43;10.70;39.70
37232;DHT22;23125;48.156;15.954;2023-04-03T14:34:14;10.70;39.70
37232;DHT22;23125;48.156;15.954;2023-04-03T14:36:42;10.60;39.60
37232;DHT22;23125;48.156;15.954;2023-04-03T14:39:11;10.70;40.00
37232;DHT22;23125;48.156;15.954;2023-04-03T14:41:41;10.70;40.00
37232;DHT22;23125;48.156;15.954;2023-04-03T14:44:08;10.70;40.00
37232;DHT22;23125;48.156;15.954;2023-04-03T14:46:40;10.70;39.60
37232;DHT22;23125;48.156;15.954;2023-04-03T14:49:20;10.60;39.50
37232;DHT22;23125;48.156;15.954;2023-04-03T14:51:47;10.60;39.50
37232;DHT22;23125;48.156;15.954;2023-04-03T14:54:16;10.60;39.30
37232;DHT22;23125;48.156;15.954;2023-04-03T14:56:42;10.50;39.30
37232;DHT22;23125;48.156;15.954;2023-04-03T14:59:11;10.50;39.30
37232;DHT22;23125;48.156;15.954;2023-04-03T15:01:38;10.50;39.50
37232;DHT22;23125;48.156;15.954;2023-04-03T15:04:12;10.50;39.40
37232;DHT22;23125;48.156;15.954;2023-04-03T15:06:39;10.40;39.20
37232;DHT22;23125;48.156;15.954;2023-04-03T15:09:09;10.40;39.20
37232;DHT22;23125;48.156;15.954;2023-04-03T15:11:37;10.40;39.70
37232;DHT22;23125;48.156;15.954;2023-04-03T15:14:03;10.30;39.10
37232;DHT22;23125;48.156;15.954;2023-04-03T15:16:28;10.30;39.10
37232;DHT22;23125;48.156;15.954;2023-04-03T15:18:54;10.20;39.00
37232;DHT22;23125;48.156;15.954;2023-04-03T15:21:20;10.20;38.90
37232;DHT22;23125;48.156;15.954;2023-04-03T15:23:46;10.10;39.00
37232;DHT22;23125;48.156;15.954;2023-04-03T15:26:12;10.10;38.90
37232;DHT22;23125;48.156;15.954;2023-04-03T15:28:42;10.00;38.90
37232;DHT22;23125;48.156;15.954;2023-04-03T15:31:10;10.00;38.90
37232;DHT22;23125;48.156;15.954;2023-04-03T15:33:36;10.00;38.90
37232;DHT22;23125;48.156;15.954;2023-04-03T15:36:03;10.00;39.10
37232;DHT22;23125;48.156;15.954;2023-04-03T15:38:29;10.00;39.10
37232;DHT22;23125;48.156;15.954;2023-04-03T15:40:55;9.90;39.10
37232;DHT22;23125;48.156;15.954;2023-04-03T15:43:22;9.90;38.90
37232;DHT22;23125;48.156;15.954;2023-04-03T15:45:49;9.80;39.20
37232;DHT22;23125;48.156;15.954;2023-04-03T15:48:15;9.80;38.70
37232;DHT22;23125;48.156;15.954;2023-04-03T15:50:41;9.80;38.80
37232;DHT22;23125;48.156;15.954;2023-04-03T15:53:08;9.70;38.80
37232;DHT22;23125;48.156;15.954;2023-04-03T15:55:36;9.70;38.90
37232;DHT22;23125;48.156;15.954;2023-04-03T15:58:03;9.70;38.80
37232;DHT22;23125;48.156;15.954;2023-04-03T16:00:30;9.60;38.70
37232;DHT22;23125;48.156;15.954;2023-04-03T16:03:00;9.60;38.70
37232;DHT22;23125;48.156;15.954;2023-04-03T16:05:27;9.50;38.60
37232;DHT22;23125;48.156;15.954;2023-04-03T16:07:53;9.50;38.70
37232;DHT22;23125;48.156;15.954;2023-04-03T16:10:21;9.50;38.70
37232;DHT22;23125;48.156;15.954;2023-04-03T16:12:47;9.50;38.70
37232;DHT22;23125;48.156;15.954;2023-04-03T16:15:12;9.40;38.60
37232;DHT22;23125;48.156;15.954;2023-04-03T16:17:39;9.40;38.60
37232;DHT22;23125;48.156;15.954;2023-04-03T16:20:07;9.40;38.70
37232;DHT22;23125;48.156;15.954;2023-04-03T16:22:34;9.30;38.70
37232;DHT22;23125;48.156;15.954;2023-04-03T16:25:01;9.40;38.80
37232;DHT22;23125;48.156;15.954;2023-04-03T16:27:27;9.30;38.70
37232;DHT22;23125;48.156;15.954;2023-04-03T16:29:55;9.30;38.70
37232;DHT22;23125;48.156;15.954;2023-04-03T16:32:21;9.30;38.70
37232;DHT22;23125;48.156;15.954;2023-04-03T16:34:48;9.20;38.60
37232;DHT22;23125;48.156;15.954;2023-04-03T16:37:15;9.20;38.70
37232;DHT22;23125;48.156;15.954;2023-04-03T16:39:41;9.20;38.80
37232;DHT22;23125;48.156;15.954;2023-04-03T16:42:07;9.20;38.70
37232;DHT22;23125;48.156;15.954;2023-04-03T16:44:35;9.10;38.70
37232;DHT22;23125;48.156;15.954;2023-04-03T16:47:01;9.10;38.50
37232;DHT22;23125;48.156;15.954;2023-04-03T16:49:27;9.00;38.40
37232;DHT22;23125;48.156;15.954;2023-04-03T16:51:58;8.90;38.30
37232;DHT22;23125;48.156;15.954;2023-04-03T16:54:24;8.90;38.50
37232;DHT22;23125;48.156;15.954;2023-04-03T16:56:50;8.80;38.50
37232;DHT22;23125;48.156;15.954;2023-04-03T16:59:16;8.80;38.70
37232;DHT22;23125;48.156;15.954;2023-04-03T17:01:42;8.80;38.70
37232;DHT22;23125;48.156;15.954;2023-04-03T17:04:08;8.80;38.80
37232;DHT22;23125;48.156;15.954;2023-04-03T17:06:34;8.70;38.80